Time;durP1;ratioP1;P1;durP2;ratioP2;P2;SDS_P1;SDS_P2;PMS_P1;PMS_P2;Temp;Humidity;BMP_temperature;BMP_pressure;BME280_temperature;BME280_humidity;BME280_pressure;Samples;Min_cycle;Max_cycle;Signal;HPM_P1;HPM_P2
2023/05/27 00:02:12;;;;;;;13.00;5.87;;;10.60;99.90;;;;;;4956704;29;20483;-80
2023/05/27 00:04:40;;;;;;;11.77;5.70;;;10.60;99.90;;;;;;4957999;29;20437;-79
2023/05/27 00:07:08;;;;;;;12.93;6.23;;;10.60;99.90;;;;;;4956728;29;20482;-80
2023/05/27 00:09:37;;;;;;;13.10;5.40;;;10.50;99.90;;;;;;4956212;29;20455;-79
2023/05/27 00:12:05;;;;;;;18.90;6.40;;;10.50;99.90;;;;;;4956478;29;20545;-80
2023/05/27 00:14:33;;;;;;;12.40;6.03;;;10.50;99.90;;;;;;4957008;28;20454;-79
2023/05/27 00:17:03;;;;;;;15.00;6.80;;;10.50;99.90;;;;;;4955463;29;20470;-79
2023/05/27 00:19:33;;;;;;;12.80;6.23;;;10.50;99.90;;;;;;4955307;29;20454;-79
2023/05/27 00:22:01;;;;;;;13.30;7.13;;;10.40;99.90;;;;;;4955465;29;20502;-79
2023/05/27 00:24:29;;;;;;;16.27;6.93;;;10.40;99.90;;;;;;4956233;29;20481;-79
2023/05/27 00:26:57;;;;;;;18.60;7.73;;;10.40;99.90;;;;;;4955075;29;20826;-79
2023/05/27 00:29:26;;;;;;;13.00;6.73;;;10.40;99.90;;;;;;4956824;29;20438;-79
2023/05/27 00:31:54;;;;;;;12.80;6.70;;;10.30;99.90;;;;;;4955189;29;20479;-78
2023/05/27 00:34:22;;;;;;;11.83;5.80;;;10.30;99.90;;;;;;4955071;29;20456;-79
2023/05/27 00:36:52;;;;;;;17.80;7.83;;;10.30;99.90;;;;;;4955204;29;20477;-79
2023/05/27 00:39:21;;;;;;;16.30;7.30;;;10.30;99.90;;;;;;4956956;29;20533;-79
2023/05/27 00:41:50;;;;;;;17.50;7.37;;;10.20;99.90;;;;;;4957060;29;20435;-80
2023/05/27 00:44:19;;;;;;;18.87;8.80;;;10.20;99.90;;;;;;4955618;29;20443;-79
2023/05/27 00:46:48;;;;;;;18.60;7.97;;;10.20;99.90;;;;;;4955814;29;20553;-79
2023/05/27 00:49:17;;;;;;;13.40;6.97;;;10.20;99.90;;;;;;4955762;29;20450;-79
2023/05/27 00:51:46;;;;;;;16.00;6.90;;;10.20;99.90;;;;;;4955708;29;20478;-80
2023/05/27 00:54:16;;;;;;;18.23;7.00;;;10.10;99.90;;;;;;4958480;29;20490;-80
2023/05/27 00:56:44;;;;;;;14.10;6.87;;;10.10;99.90;;;;;;4957579;29;20506;-80
2023/05/27 00:59:13;;;;;;;13.10;5.77;;;10.10;99.90;;;;;;4959109;29;20477;-80
2023/05/27 01:01:43;;;;;;;16.60;7.43;;;10.10;99.90;;;;;;4956900;29;20497;-80
2023/05/27 01:04:13;;;;;;;12.80;6.00;;;10.00;99.90;;;;;;4957607;29;20450;-80
2023/05/27 01:06:54;;;;;;;13.73;6.73;;;10.00;99.90;;;;;;4956550;29;20470;-80
2023/05/27 01:09:28;;;;;;;15.67;7.10;;;10.00;99.90;;;;;;4958737;29;20442;-80
2023/05/27 01:12:03;;;;;;;14.47;6.67;;;10.00;99.90;;;;;;4956929;29;20454;-80
2023/05/27 01:14:34;;;;;;;13.37;6.63;;;9.90;99.90;;;;;;4956647;29;20501;-80
2023/05/27 01:17:06;;;;;;;15.60;6.27;;;9.90;99.90;;;;;;4957175;29;20470;-80
2023/05/27 01:19:37;;;;;;;15.90;7.20;;;9.90;99.90;;;;;;4956983;29;20483;-80
2023/05/27 01:22:08;;;;;;;13.97;6.47;;;9.90;99.90;;;;;;4956728;29;20518;-80
2023/05/27 01:24:41;;;;;;;13.73;6.43;;;9.90;99.90;;;;;;4956463;28;20498;-80
2023/05/27 01:27:11;;;;;;;13.70;6.60;;;9.80;99.90;;;;;;4960509;29;20559;-80
2023/05/27 01:29:42;;;;;;;14.80;6.73;;;9.80;99.90;;;;;;4960342;29;20451;-80
2023/05/27 01:32:16;;;;;;;13.80;6.93;;;9.80;99.90;;;;;;4960273;29;20485;-80
2023/05/27 01:34:54;;;;;;;14.53;6.60;;;9.80;99.90;;;;;;4961429;29;20422;-79
2023/05/27 01:37:25;;;;;;;13.40;6.63;;;9.80;99.90;;;;;;4959912;29;20477;-80
2023/05/27 01:39:55;;;;;;;14.20;7.00;;;9.70;99.90;;;;;;4961066;28;20439;-80
2023/05/27 01:42:25;;;;;;;15.97;6.43;;;9.70;99.90;;;;;;4961338;29;20415;-79
2023/05/27 01:44:56;;;;;;;13.23;6.00;;;9.60;99.90;;;;;;4959511;29;20836;-80
2023/05/27 01:47:24;;;;;;;16.20;6.90;;;9.60;99.90;;;;;;4959108;29;20567;-80
2023/05/27 01:49:52;;;;;;;13.13;6.70;;;9.60;99.90;;;;;;4961390;29;20533;-80
2023/05/27 01:52:23;;;;;;;13.67;6.93;;;9.60;99.90;;;;;;4958994;29;20988;-80
2023/05/27 01:54:52;;;;;;;14.97;7.60;;;9.60;99.90;;;;;;4959524;29;20450;-79
2023/05/27 01:57:22;;;;;;;14.53;6.83;;;9.50;99.90;;;;;;4959930;29;20475;-80
2023/05/27 01:59:51;;;;;;;12.93;6.40;;;9.50;99.90;;;;;;4959936;29;20953;-80
2023/05/27 02:02:19;;;;;;;15.70;7.07;;;9.60;99.90;;;;;;4958994;29;20529;-80
2023/05/27 02:04:50;;;;;;;13.73;6.27;;;9.50;99.90;;;;;;4958876;29;20443;-79
2023/05/27 02:07:19;;;;;;;15.23;6.10;;;9.50;99.90;;;;;;4958650;29;20988;-80
2023/05/27 02:09:49;;;;;;;15.07;6.73;;;9.40;99.90;;;;;;4959333;29;20490;-79
2023/05/27 02:12:19;;;;;;;16.83;7.07;;;9.40;99.90;;;;;;4958894;29;20451;-80
2023/05/27 02:14:49;;;;;;;12.50;6.60;;;9.40;99.90;;;;;;4958595;29;20454;-79
2023/05/27 02:17:17;;;;;;;15.13;6.23;;;9.40;99.90;;;;;;4959565;29;20526;-80
2023/05/27 02:19:46;;;;;;;11.97;7.00;;;9.40;99.90;;;;;;4959465;29;20807;-80
2023/05/27 02:22:14;;;;;;;13.67;7.50;;;9.30;99.90;;;;;;4959282;29;20451;-80
2023/05/27 02:24:42;;;;;;;13.67;6.90;;;9.30;99.90;;;;;;4958938;29;20534;-80
2023/05/27 02:27:11;;;;;;;14.87;6.90;;;9.30;99.90;;;;;;4960650;29;20466;-80
2023/05/27 02:29:39;;;;;;;14.13;7.03;;;9.30;99.90;;;;;;4959645;29;20493;-80
2023/05/27 02:32:09;;;;;;;14.10;6.90;;;9.30;99.90;;;;;;4958615;29;20466;-80
2023/05/27 02:34:37;;;;;;;14.80;6.93;;;9.20;99.90;;;;;;4958917;29;20525;-80
2023/05/27 02:37:06;;;;;;;13.60;7.00;;;9.20;99.90;;;;;;4958417;28;20474;-79
2023/05/27 02:39:34;;;;;;;13.87;7.23;;;9.20;99.90;;;;;;4958502;29;20462;-79
2023/05/27 02:42:02;;;;;;;13.50;7.10;;;9.20;99.90;;;;;;4958295;29;20442;-80
2023/05/27 02:44:31;;;;;;;13.73;7.40;;;9.20;99.90;;;;;;4958878;29;20502;-79
2023/05/27 02:46:59;;;;;;;17.80;7.17;;;9.20;99.90;;;;;;4959633;29;20474;-80
2023/05/27 02:49:29;;;;;;;11.37;6.47;;;9.10;99.90;;;;;;4959249;29;20494;-80
2023/05/27 02:51:58;;;;;;;16.57;7.30;;;9.10;99.90;;;;;;4960274;29;20435;-80
2023/05/27 02:54:26;;;;;;;16.50;7.73;;;9.10;99.90;;;;;;4958336;29;20589;-80
2023/05/27 02:56:54;;;;;;;11.07;6.40;;;9.10;99.90;;;;;;4958180;29;20513;-80
2023/05/27 02:59:23;;;;;;;14.10;7.40;;;9.00;99.90;;;;;;4957138;29;20451;-79
2023/05/27 03:01:51;;;;;;;16.27;7.63;;;9.00;99.90;;;;;;4957937;29;20546;-78
2023/05/27 03:04:23;;;;;;;21.10;7.50;;;9.00;99.90;;;;;;4957859;29;20439;-80
2023/05/27 03:06:55;;;;;;;16.03;7.00;;;9.00;99.90;;;;;;4957720;29;21016;-79
2023/05/27 03:09:23;;;;;;;16.23;7.87;;;9.00;99.90;;;;;;4957427;29;20459;-79
2023/05/27 03:11:51;;;;;;;16.30;7.60;;;8.90;99.90;;;;;;4957485;29;20458;-79
2023/05/27 03:14:20;;;;;;;17.53;6.97;;;8.90;99.90;;;;;;4957541;29;20505;-79
2023/05/27 03:16:48;;;;;;;13.07;7.23;;;8.90;99.90;;;;;;4957172;29;20530;-80
2023/05/27 03:19:17;;;;;;;14.30;7.20;;;8.90;99.90;;;;;;4956876;29;20975;-79
2023/05/27 03:21:45;;;;;;;17.53;7.40;;;8.90;99.90;;;;;;4957462;29;20462;-80
2023/05/27 03:24:15;;;;;;;19.33;7.90;;;8.90;99.90;;;;;;4957148;29;20450;-80
2023/05/27 03:26:44;;;;;;;11.40;6.50;;;8.90;99.90;;;;;;4957042;29;20470;-80
2023/05/27 03:29:12;;;;;;;18.60;7.50;;;8.90;99.90;;;;;;4956953;29;20470;-80
2023/05/27 03:31:41;;;;;;;14.50;7.10;;;8.80;99.90;;;;;;4957537;29;20446;-79
2023/05/27 03:34:13;;;;;;;15.00;6.83;;;8.80;99.90;;;;;;4957687;29;20526;-79
2023/05/27 03:36:42;;;;;;;15.10;7.03;;;8.80;99.90;;;;;;4956952;29;20471;-80
2023/05/27 03:39:11;;;;;;;17.47;7.20;;;8.70;99.90;;;;;;4956760;29;20451;-80
2023/05/27 03:41:46;;;;;;;10.70;6.47;;;8.80;99.90;;;;;;4956843;29;20975;-80
2023/05/27 03:44:14;;;;;;;15.17;8.00;;;8.70;99.90;;;;;;4956873;29;20451;-79
2023/05/27 03:46:42;;;;;;;15.80;7.97;;;8.70;99.90;;;;;;4958241;29;20470;-80
2023/05/27 03:49:10;;;;;;;14.60;7.63;;;8.70;99.90;;;;;;4956149;28;20514;-79
2023/05/27 03:51:43;;;;;;;12.47;6.80;;;8.70;99.90;;;;;;4956484;29;20450;-80
2023/05/27 03:54:13;;;;;;;14.47;7.60;;;8.70;99.90;;;;;;4956288;29;20471;-79
2023/05/27 03:56:41;;;;;;;15.13;7.93;;;8.70;99.90;;;;;;4956291;29;20489;-79
2023/05/27 03:59:11;;;;;;;12.80;6.80;;;8.70;99.90;;;;;;4957561;29;20951;-80
2023/05/27 04:01:41;;;;;;;12.73;7.00;;;8.70;99.90;;;;;;4956140;29;20517;-79
2023/05/27 04:04:09;;;;;;;14.60;8.60;;;8.70;99.90;;;;;;4957456;29;20470;-79
2023/05/27 04:06:38;;;;;;;13.30;7.40;;;8.70;99.90;;;;;;4956050;29;20915;-79
2023/05/27 04:09:06;;;;;;;14.60;7.40;;;8.70;99.90;;;;;;4955950;28;20566;-79
2023/05/27 04:11:34;;;;;;;15.13;8.13;;;8.70;99.90;;;;;;4956939;29;20959;-80
2023/05/27 04:14:04;;;;;;;14.73;7.87;;;8.70;99.90;;;;;;4955976;29;20470;-79
2023/05/27 04:16:34;;;;;;;12.90;7.00;;;8.70;99.90;;;;;;4956714;29;20478;-80
2023/05/27 04:19:03;;;;;;;19.10;8.10;;;8.70;99.90;;;;;;4956534;29;20439;-79
2023/05/27 04:21:32;;;;;;;17.57;8.00;;;8.70;99.90;;;;;;4955790;29;20478;-79
2023/05/27 04:24:03;;;;;;;16.10;7.37;;;8.80;99.90;;;;;;4955879;29;20446;-80
2023/05/27 04:26:32;;;;;;;13.57;7.57;;;8.80;99.90;;;;;;4955604;29;20474;-79
2023/05/27 04:29:01;;;;;;;14.20;7.70;;;8.80;99.90;;;;;;4955289;29;20490;-79
2023/05/27 04:31:29;;;;;;;13.60;7.83;;;8.80;99.90;;;;;;4955426;29;20461;-79
2023/05/27 04:34:05;;;;;;;14.30;7.67;;;8.80;99.90;;;;;;4955353;29;20478;-79
2023/05/27 04:36:35;;;;;;;14.53;7.90;;;8.80;99.90;;;;;;4955970;29;20466;-79
2023/05/27 04:39:08;;;;;;;14.60;7.80;;;8.90;99.90;;;;;;4955907;29;20465;-80
2023/05/27 04:41:39;;;;;;;13.43;7.10;;;8.90;99.90;;;;;;4955408;29;20486;-79
2023/05/27 04:44:12;;;;;;;12.63;8.00;;;8.90;99.90;;;;;;4954787;29;20450;-79
2023/05/27 04:46:44;;;;;;;14.80;8.53;;;8.90;99.90;;;;;;4954742;29;20478;-79
2023/05/27 04:49:15;;;;;;;18.20;7.70;;;9.00;99.90;;;;;;4955300;29;20968;-79
2023/05/27 04:51:44;;;;;;;15.93;8.03;;;9.00;99.90;;;;;;4954602;29;20446;-79
2023/05/27 04:54:14;;;;;;;12.90;7.27;;;9.00;99.90;;;;;;4954804;28;20474;-80
2023/05/27 04:56:43;;;;;;;14.03;7.10;;;9.00;99.90;;;;;;4954593;29;20470;-79
2023/05/27 04:59:19;;;;;;;13.17;7.67;;;9.00;99.90;;;;;;4954844;28;20963;-79
2023/05/27 05:02:09;;;;;;;14.57;7.93;;;9.10;99.90;;;;;;4958081;29;20936;-79
2023/05/27 05:04:58;;;;;;;16.13;7.83;;;9.10;99.90;;;;;;4959332;29;20445;-79
2023/05/27 05:07:26;;;;;;;17.25;7.70;;;9.10;99.90;;;;;;4959355;29;20455;-80
2023/05/27 05:09:55;;;;;;;17.87;8.50;;;9.20;99.90;;;;;;4960417;29;20199;-79
2023/05/27 05:12:30;;;;;;;17.63;8.07;;;9.20;99.90;;;;;;4958862;29;20458;-79
2023/05/27 05:14:59;;;;;;;20.10;8.40;;;9.20;99.90;;;;;;4958061;29;20473;-79
2023/05/27 05:17:27;;;;;;;19.00;9.47;;;9.30;99.90;;;;;;4958354;29;20964;-79
2023/05/27 05:19:57;;;;;;;18.17;9.03;;;9.30;99.90;;;;;;4958299;29;20549;-79
2023/05/27 05:22:28;;;;;;;17.70;8.90;;;9.30;99.90;;;;;;4958578;29;20453;-79
2023/05/27 05:24:57;;;;;;;18.00;8.27;;;9.30;99.90;;;;;;4958585;29;20868;-79
2023/05/27 05:27:31;;;;;;;17.30;8.17;;;9.40;99.90;;;;;;4958687;29;20450;-79
2023/05/27 05:30:01;;;;;;;18.70;8.73;;;9.40;99.90;;;;;;4959005;29;20461;-79
2023/05/27 05:32:32;;;;;;;14.20;7.77;;;9.40;99.90;;;;;;4960537;29;20423;-80
2023/05/27 05:35:01;;;;;;;14.83;8.80;;;9.50;99.90;;;;;;4959199;29;20474;-79
2023/05/27 05:37:30;;;;;;;18.30;8.87;;;9.60;99.90;;;;;;4960062;29;20466;-80
2023/05/27 05:39:58;;;;;;;17.73;8.20;;;9.70;99.90;;;;;;4957846;29;20455;-79
2023/05/27 05:42:27;;;;;;;17.10;7.90;;;9.80;99.90;;;;;;4959551;29;20454;-80
2023/05/27 05:44:56;;;;;;;17.23;9.27;;;10.00;99.90;;;;;;4959688;29;20478;-79
2023/05/27 05:47:24;;;;;;;15.23;7.90;;;10.10;99.90;;;;;;4961089;29;20450;-80
2023/05/27 05:50:06;;;;;;;14.30;7.77;;;10.30;99.90;;;;;;4960677;29;20478;-80
2023/05/27 05:52:36;;;;;;;18.20;9.03;;;10.50;99.90;;;;;;4961692;29;20482;-79
2023/05/27 05:55:06;;;;;;;15.70;8.30;;;10.70;99.90;;;;;;4960010;29;20485;-80
2023/05/27 05:57:35;;;;;;;12.43;7.33;;;10.90;99.90;;;;;;4959235;29;20458;-80
2023/05/27 06:00:08;;;;;;;14.40;8.03;;;11.10;99.90;;;;;;4958060;29;20545;-79
2023/05/27 06:02:44;;;;;;;14.80;7.90;;;11.30;99.90;;;;;;4959418;28;20419;-79
2023/05/27 06:05:34;;;;;;;19.80;8.07;;;11.50;99.90;;;;;;4961940;28;20517;-81
2023/05/27 06:08:03;;;;;;;13.47;7.70;;;11.80;99.90;;;;;;4960945;29;20455;-81
2023/05/27 06:10:32;;;;;;;18.63;8.10;;;12.00;99.90;;;;;;4960132;28;20450;-80
2023/05/27 06:13:01;;;;;;;19.47;7.40;;;12.20;99.90;;;;;;4961541;29;20446;-80
2023/05/27 06:15:30;;;;;;;16.93;7.07;;;12.40;99.90;;;;;;4960360;29;20482;-80
2023/05/27 06:17:58;;;;;;;16.67;7.27;;;12.50;99.90;;;;;;4959687;29;20984;-80
2023/05/27 06:20:27;;;;;;;19.50;8.50;;;12.70;99.90;;;;;;4959555;29;20494;-80
2023/05/27 06:22:57;;;;;;;20.03;7.97;;;12.90;99.90;;;;;;4961431;29;21007;-80
2023/05/27 06:25:34;;;;;;;20.23;6.83;;;13.00;99.90;;;;;;4961116;29;20816;-80
2023/05/27 06:28:08;;;;;;;12.63;5.97;;;13.30;99.90;;;;;;4958723;29;20443;-80
2023/05/27 06:30:37;;;;;;;16.87;7.33;;;13.40;99.90;;;;;;4960159;29;20463;-80
2023/05/27 06:33:09;;;;;;;17.33;8.10;;;13.50;99.90;;;;;;4961314;29;20443;-80
2023/05/27 06:35:38;;;;;;;14.17;7.27;;;13.70;99.90;;;;;;4960602;29;20851;-80
2023/05/27 06:38:08;;;;;;;20.40;7.13;;;13.90;99.90;;;;;;4960804;29;20482;-81
2023/05/27 06:40:36;;;;;;;14.97;7.60;;;14.00;99.90;;;;;;4960674;29;20454;-80
2023/05/27 06:43:07;;;;;;;17.73;7.57;;;14.20;99.90;;;;;;4960602;29;20476;-80
2023/05/27 06:45:53;;;;;;;15.43;6.77;;;14.30;99.90;;;;;;4959677;29;20478;-79
2023/05/27 06:48:45;;;;;;;18.57;7.80;;;14.50;99.90;;;;;;4960234;29;20505;-79
2023/05/27 06:51:13;;;;;;;18.57;9.03;;;14.60;99.90;;;;;;4960989;29;20483;-80
2023/05/27 06:53:43;;;;;;;19.20;9.20;;;14.60;99.90;;;;;;4960383;29;20454;-80
2023/05/27 06:56:19;;;;;;;15.70;8.67;;;14.80;99.90;;;;;;4960737;29;20573;-80
2023/05/27 06:59:05;;;;;;;18.90;7.90;;;14.80;99.90;;;;;;4959942;28;20537;-80
2023/05/27 07:01:34;;;;;;;14.80;8.20;;;15.00;99.90;;;;;;4959526;29;20791;-80
2023/05/27 07:04:07;;;;;;;19.43;7.90;;;15.20;99.90;;;;;;4959527;29;20451;-80
2023/05/27 07:06:45;;;;;;;16.73;8.20;;;15.30;99.90;;;;;;4958337;29;20541;-79
2023/05/27 07:09:15;;;;;;;16.13;7.37;;;15.40;99.90;;;;;;4959335;29;20523;-79
2023/05/27 07:11:44;;;;;;;13.63;6.30;;;15.60;99.90;;;;;;4957440;29;20501;-79
2023/05/27 07:14:17;;;;;;;13.90;6.87;;;15.70;99.90;;;;;;4957455;29;20442;-79
2023/05/27 07:16:46;;;;;;;18.37;6.43;;;15.80;99.90;;;;;;4958777;29;20489;-78
2023/05/27 07:19:14;;;;;;;14.97;7.20;;;15.90;99.90;;;;;;4957020;29;20458;-78
2023/05/27 07:21:50;;;;;;;16.80;7.40;;;16.10;99.90;;;;;;4958255;29;20498;-80
2023/05/27 07:24:23;;;;;;;17.17;7.20;;;16.20;99.90;;;;;;4955226;28;20475;-79
2023/05/27 07:26:53;;;;;;;16.27;7.30;;;16.20;99.90;;;;;;4956741;29;21059;-79
2023/05/27 07:29:23;;;;;;;13.53;6.80;;;16.30;99.90;;;;;;4956801;29;20446;-79
2023/05/27 07:31:53;;;;;;;13.97;6.67;;;16.40;99.90;;;;;;4958301;29;20431;-78
2023/05/27 07:34:28;;;;;;;11.40;6.30;;;16.50;99.90;;;;;;4956088;29;20420;-78
2023/05/27 07:36:56;;;;;;;13.50;6.93;;;16.50;99.90;;;;;;4956136;29;20449;-78
2023/05/27 07:39:26;;;;;;;15.37;6.60;;;16.50;99.90;;;;;;4956555;29;20417;-79
2023/05/27 07:41:55;;;;;;;12.40;6.70;;;16.60;99.90;;;;;;4956911;28;20405;-77
2023/05/27 07:44:27;;;;;;;13.93;6.00;;;16.70;99.90;;;;;;4956063;29;20950;-79
2023/05/27 07:46:57;;;;;;;18.50;7.80;;;16.80;99.90;;;;;;4956441;29;20565;-79
2023/05/27 07:49:25;;;;;;;15.07;6.57;;;16.80;99.90;;;;;;4957316;29;20438;-79
2023/05/27 07:52:12;;;;;;;14.83;6.73;;;16.90;99.90;;;;;;4957121;29;20423;-79
2023/05/27 07:54:42;;;;;;;13.90;7.03;;;17.00;99.90;;;;;;4956490;29;20462;-79
2023/05/27 07:57:23;;;;;;;13.43;6.87;;;17.10;99.90;;;;;;4955140;29;20474;-78
2023/05/27 07:59:51;;;;;;;17.47;7.83;;;17.20;99.90;;;;;;4955400;29;20432;-79
2023/05/27 08:02:21;;;;;;;13.53;6.00;;;17.10;99.90;;;;;;4955424;29;20488;-78
2023/05/27 08:04:50;;;;;;;13.07;6.90;;;17.10;99.90;;;;;;4956579;29;20429;-79
2023/05/27 08:07:23;;;;;;;18.80;7.27;;;17.10;99.90;;;;;;4956744;29;20426;-78
2023/05/27 08:10:25;;;;;;;12.37;6.13;;;17.10;99.90;;;;;;4955889;29;20511;-78
2023/05/27 08:13:16;;;;;;;14.77;6.03;;;17.10;99.90;;;;;;4955652;29;20429;-78
2023/05/27 08:15:57;;;;;;;11.90;6.40;;;17.20;99.90;;;;;;4956355;29;20470;-79
2023/05/27 08:18:40;;;;;;;14.00;6.43;;;17.30;99.90;;;;;;4956443;29;20451;-78
2023/05/27 08:21:16;;;;;;;11.67;5.93;;;17.40;99.90;;;;;;4958003;29;20521;-79
2023/05/27 08:24:00;;;;;;;17.97;6.83;;;17.50;99.90;;;;;;4959305;29;20413;-79
2023/05/27 08:27:05;;;;;;;12.53;6.20;;;17.60;99.90;;;;;;4936840;28;20461;-78
2023/05/27 08:29:39;;;;;;;12.50;5.90;;;17.70;99.90;;;;;;4957147;29;20504;-79
2023/05/27 08:32:28;;;;;;;14.27;6.93;;;17.60;99.90;;;;;;4954495;28;20899;-79
2023/05/27 08:34:57;;;;;;;14.87;6.50;;;17.50;99.90;;;;;;4957114;28;20964;-79
2023/05/27 08:37:26;;;;;;;14.87;6.50;;;17.40;99.90;;;;;;4956753;29;20448;-79
2023/05/27 08:39:57;;;;;;;16.80;5.90;;;17.30;99.90;;;;;;4956960;29;20429;-79
2023/05/27 08:42:42;;;;;;;13.27;6.37;;;17.30;99.90;;;;;;4957500;29;20801;-78
2023/05/27 08:45:12;;;;;;;14.03;7.00;;;17.40;99.90;;;;;;4956648;29;20418;-78
2023/05/27 08:47:41;;;;;;;12.67;5.63;;;17.50;99.90;;;;;;4956489;29;20458;-78
2023/05/27 08:50:14;;;;;;;17.90;6.67;;;17.50;99.90;;;;;;4957307;28;20537;-78
2023/05/27 08:52:47;;;;;;;12.43;6.63;;;17.60;99.90;;;;;;4956915;29;20446;-78
2023/05/27 08:55:18;;;;;;;13.43;6.87;;;17.80;99.90;;;;;;4954450;29;20823;-78
2023/05/27 08:57:52;;;;;;;16.03;6.97;;;17.90;99.90;;;;;;4954242;29;20466;-77
2023/05/27 09:00:20;;;;;;;13.53;6.43;;;18.00;99.90;;;;;;4955578;29;20853;-77
2023/05/27 09:02:50;;;;;;;13.63;6.30;;;18.00;99.90;;;;;;4955038;29;20482;-79
2023/05/27 09:05:22;;;;;;;19.00;9.77;;;18.10;99.90;;;;;;4955291;29;20478;-78
2023/05/27 09:07:50;;;;;;;12.50;6.10;;;18.10;99.90;;;;;;4954817;29;20461;-78
2023/05/27 09:10:18;;;;;;;15.90;7.70;;;18.10;99.90;;;;;;4956898;29;20421;-79
2023/05/27 09:12:48;;;;;;;15.00;6.70;;;18.10;99.90;;;;;;4956658;29;20454;-78
2023/05/27 09:15:17;;;;;;;15.60;6.90;;;18.10;99.90;;;;;;4956298;29;20478;-77
2023/05/27 09:17:47;;;;;;;17.57;7.37;;;18.20;99.90;;;;;;4955030;29;20847;-78
2023/05/27 09:20:15;;;;;;;17.17;7.23;;;18.20;99.90;;;;;;4955657;29;20524;-78
2023/05/27 09:22:43;;;;;;;14.97;7.30;;;18.10;99.90;;;;;;4956937;29;20447;-79
2023/05/27 09:25:12;;;;;;;14.23;6.57;;;18.20;99.90;;;;;;4954884;29;20843;-78
2023/05/27 09:27:44;;;;;;;11.97;6.23;;;18.20;99.90;;;;;;4956979;28;20469;-78
2023/05/27 09:30:15;;;;;;;16.37;6.07;;;18.20;99.90;;;;;;4955801;29;20534;-77
2023/05/27 09:32:44;;;;;;;13.47;6.10;;;18.30;99.90;;;;;;4955533;29;20450;-78
2023/05/27 09:35:12;;;;;;;17.97;6.80;;;18.40;99.90;;;;;;4955675;29;20458;-78
2023/05/27 09:37:41;;;;;;;16.73;6.20;;;18.40;99.90;;;;;;4957283;29;20462;-78
2023/05/27 09:40:12;;;;;;;14.60;6.13;;;18.60;99.90;;;;;;4956446;29;20442;-78
2023/05/27 09:42:41;;;;;;;11.37;5.47;;;18.70;99.90;;;;;;4954772;29;20575;-78
2023/05/27 09:45:13;;;;;;;12.70;6.20;;;18.80;99.90;;;;;;4956530;29;20427;-78
2023/05/27 09:47:47;;;;;;;13.87;7.23;;;18.80;99.90;;;;;;4958778;29;20454;-78
2023/05/27 09:50:16;;;;;;;14.80;7.40;;;18.90;99.90;;;;;;4958908;29;20947;-78
2023/05/27 09:52:46;;;;;;;15.10;7.10;;;19.00;99.90;;;;;;4958652;29;20849;-78
2023/05/27 09:55:32;;;;;;;12.13;5.20;;;19.00;99.90;;;;;;4958433;29;20474;-78
2023/05/27 09:58:00;;;;;;;15.27;7.07;;;19.00;99.90;;;;;;4959684;29;20841;-78
2023/05/27 10:00:30;;;;;;;11.30;5.70;;;18.90;99.90;;;;;;4957694;29;20517;-79
2023/05/27 10:03:02;;;;;;;16.60;5.97;;;19.00;99.90;;;;;;4957781;29;20450;-78
2023/05/27 10:05:31;;;;;;;15.37;6.77;;;19.10;99.90;;;;;;4957591;29;20470;-78
2023/05/27 10:07:59;;;;;;;13.77;6.37;;;19.10;99.90;;;;;;4958450;29;20550;-79
2023/05/27 10:10:45;;;;;;;12.47;6.27;;;19.20;99.90;;;;;;4959871;29;20486;-79
2023/05/27 10:13:16;;;;;;;16.60;7.23;;;19.20;99.90;;;;;;4957815;29;20545;-78
2023/05/27 10:15:48;;;;;;;10.87;5.70;;;19.30;99.90;;;;;;4959640;29;20822;-79
2023/05/27 10:18:26;;;;;;;12.23;6.33;;;19.30;99.90;;;;;;4958060;29;20466;-79
2023/05/27 10:20:55;;;;;;;13.23;7.07;;;19.30;99.90;;;;;;4960259;29;20425;-79
2023/05/27 10:23:26;;;;;;;11.60;6.30;;;19.30;99.90;;;;;;4960893;29;20435;-81
2023/05/27 10:25:56;;;;;;;14.53;7.60;;;19.40;99.90;;;;;;4961197;29;20455;-80
2023/05/27 10:28:26;;;;;;;14.80;6.80;;;19.40;99.90;;;;;;4959635;29;20531;-80
2023/05/27 10:31:04;;;;;;;12.40;6.53;;;19.50;99.90;;;;;;4958835;29;21034;-79
2023/05/27 10:33:36;;;;;;;16.47;8.23;;;19.50;99.90;;;;;;4958669;29;20473;-79
2023/05/27 10:36:07;;;;;;;12.70;6.93;;;19.50;99.90;;;;;;4957757;29;20470;-79
2023/05/27 10:38:35;;;;;;;12.90;6.97;;;19.50;99.90;;;;;;4959078;28;21007;-81
2023/05/27 10:41:06;;;;;;;15.53;6.37;;;19.50;99.90;;;;;;4960354;29;20492;-79
2023/05/27 10:43:35;;;;;;;18.50;7.37;;;19.50;99.90;;;;;;4959440;29;20447;-79
2023/05/27 10:46:05;;;;;;;11.50;6.40;;;19.60;99.90;;;;;;4958615;29;20533;-79
2023/05/27 10:48:35;;;;;;;14.33;6.80;;;19.70;99.90;;;;;;4958141;29;20474;-79
2023/05/27 10:51:03;;;;;;;13.53;6.60;;;19.70;99.90;;;;;;4959883;29;20482;-79
2023/05/27 10:53:32;;;;;;;12.73;6.40;;;19.70;99.90;;;;;;4957890;29;20452;-80
2023/05/27 10:56:01;;;;;;;13.67;6.80;;;19.80;99.30;;;;;;4958413;29;20227;-79
2023/05/27 10:58:30;;;;;;;13.97;7.23;;;19.80;99.40;;;;;;4957947;28;20553;-79
2023/05/27 11:00:58;;;;;;;10.53;5.70;;;19.80;99.40;;;;;;4957999;29;20446;-78
2023/05/27 11:03:28;;;;;;;14.60;6.67;;;19.90;99.40;;;;;;4958780;29;20463;-79
2023/05/27 11:06:03;;;;;;;11.50;7.10;;;19.80;99.40;;;;;;4960014;29;20466;-79
2023/05/27 11:08:32;;;;;;;13.27;6.37;;;19.90;99.60;;;;;;4959136;29;20794;-79
2023/05/27 11:11:01;;;;;;;13.00;6.43;;;19.90;99.30;;;;;;4957588;29;20454;-79
2023/05/27 11:13:34;;;;;;;13.43;7.33;;;19.90;99.40;;;;;;4959056;29;20443;-79
2023/05/27 11:16:05;;;;;;;18.83;7.37;;;20.00;99.40;;;;;;4957720;29;20470;-79
2023/05/27 11:18:38;;;;;;;13.67;6.70;;;20.00;99.30;;;;;;4958019;29;20972;-80
2023/05/27 11:21:09;;;;;;;13.83;5.93;;;20.00;99.30;;;;;;4957854;29;20454;-79
2023/05/27 11:23:39;;;;;;;14.83;7.37;;;20.10;99.20;;;;;;4958382;29;20446;-79
2023/05/27 11:26:14;;;;;;;14.13;6.80;;;20.10;99.10;;;;;;4959536;29;20812;-81
2023/05/27 11:28:50;;;;;;;14.73;7.23;;;20.10;99.10;;;;;;4958897;29;20454;-80
2023/05/27 11:31:20;;;;;;;10.80;6.00;;;20.20;99.00;;;;;;4960098;29;20442;-80
2023/05/27 11:33:51;;;;;;;11.50;6.30;;;20.20;98.80;;;;;;4959081;29;20486;-79
2023/05/27 11:36:21;;;;;;;12.30;7.07;;;20.20;98.70;;;;;;4958885;29;20557;-80
2023/05/27 11:38:51;;;;;;;11.53;6.30;;;20.20;98.60;;;;;;4958314;29;20521;-78
2023/05/27 11:41:20;;;;;;;13.23;6.57;;;20.20;98.70;;;;;;4957688;29;20450;-79
2023/05/27 11:43:53;;;;;;;13.43;7.60;;;20.20;98.40;;;;;;4961208;29;20438;-81
2023/05/27 11:46:22;;;;;;;12.23;7.00;;;20.20;98.30;;;;;;4957403;29;20533;-82
2023/05/27 11:48:50;;;;;;;13.37;7.20;;;20.30;98.30;;;;;;4958599;29;20461;-81
2023/05/27 11:51:19;;;;;;;11.83;6.60;;;20.30;98.30;;;;;;4957916;28;20546;-80
2023/05/27 11:53:49;;;;;;;12.20;6.33;;;20.30;98.30;;;;;;4958800;29;20486;-79
2023/05/27 11:56:17;;;;;;;12.50;6.13;;;20.30;98.30;;;;;;4958644;29;20466;-79
2023/05/27 11:58:46;;;;;;;11.47;6.47;;;20.40;98.30;;;;;;4960399;29;20470;-82
2023/05/27 12:01:14;;;;;;;9.73;5.83;;;20.40;98.00;;;;;;4959428;29;20524;-81
2023/05/27 12:03:42;;;;;;;12.83;6.17;;;20.50;97.80;;;;;;4960795;29;20882;-81
2023/05/27 12:06:10;;;;;;;13.97;7.47;;;20.40;97.70;;;;;;4962936;29;20522;-81
2023/05/27 12:08:39;;;;;;;15.10;6.50;;;20.40;97.60;;;;;;4960518;28;20518;-81
2023/05/27 12:11:09;;;;;;;14.27;7.37;;;20.40;97.40;;;;;;4962462;29;20450;-82
2023/05/27 12:13:37;;;;;;;13.20;7.10;;;20.40;97.40;;;;;;4960465;29;20458;-81
2023/05/27 12:16:07;;;;;;;12.00;6.03;;;20.40;97.40;;;;;;4960468;29;20466;-81
2023/05/27 12:18:35;;;;;;;10.80;6.83;;;20.50;97.40;;;;;;4960412;29;20470;-81
2023/05/27 12:21:03;;;;;;;12.30;7.37;;;20.50;97.30;;;;;;4958549;29;20450;-82
2023/05/27 12:23:32;;;;;;;12.87;6.80;;;20.50;97.30;;;;;;4959335;29;20451;-82
2023/05/27 12:26:01;;;;;;;12.20;6.80;;;20.60;97.30;;;;;;4960891;29;20466;-82
2023/05/27 12:28:30;;;;;;;12.93;7.30;;;20.60;97.30;;;;;;4959268;29;20479;-82
2023/05/27 12:30:59;;;;;;;16.20;7.30;;;20.60;97.30;;;;;;4958602;29;20446;-82
2023/05/27 12:33:27;;;;;;;13.50;6.40;;;20.70;97.40;;;;;;4958156;29;20459;-82
2023/05/27 12:35:56;;;;;;;15.73;7.07;;;20.70;97.40;;;;;;4962983;28;20458;-82
2023/05/27 12:38:24;;;;;;;11.07;6.37;;;20.70;97.20;;;;;;4960812;29;20821;-83
2023/05/27 12:40:55;;;;;;;11.73;7.20;;;20.70;97.20;;;;;;4960485;29;21007;-83
2023/05/27 12:43:23;;;;;;;15.10;7.83;;;20.70;97.10;;;;;;4959965;29;20438;-81
2023/05/27 12:45:53;;;;;;;10.93;7.00;;;20.70;96.90;;;;;;4960476;29;20830;-81
2023/05/27 12:48:21;;;;;;;13.07;7.13;;;20.70;96.90;;;;;;4959153;28;20423;-81
2023/05/27 12:50:50;;;;;;;12.67;8.00;;;20.70;97.00;;;;;;4959206;29;20450;-81
2023/05/27 12:53:18;;;;;;;13.57;7.50;;;20.80;97.10;;;;;;4958929;29;20517;-81
2023/05/27 12:55:46;;;;;;;16.57;7.80;;;20.80;97.10;;;;;;4959049;29;20841;-81
2023/05/27 12:58:16;;;;;;;12.90;6.90;;;20.90;97.20;;;;;;4960040;29;20566;-81
2023/05/27 13:00:45;;;;;;;11.50;7.10;;;21.00;97.30;;;;;;4960167;29;20446;-82